Archival Weather

Chicago O'Hare International

Chicago, Illinois (KORD)

Report from: Saturday, March 18, 2023 8:04 AM CDT
Current time: Saturday, March 2, 2024 3:38 AM CST

Current weather – Weather history – Daily summaries
Weather forecast

Present weatherLight snow
Temperature-10.6°C (12.9°F)
Wind chill-20.2°C (-4.4°F)
Dew point-16.7°C (1.9°F)
Winds 16 kts (8.2 m/s, 18.4 mph) West-Northwest (290°)
Wind gusts 26 kts (13.4 m/s, 29.9 mph)
Peak wind 26 kts (13.4 m/s, 29.9 mph) West-Northwest (290°) at 12:56
Visibility10 mi. (16.1 km)
Clouds Ceiling: Broken clouds 2,500 ft. (762 m)
Broken clouds 2,900 ft. (884 m)
Altimeter29.97 in.Hg (1015 mB)
PrecipitiationTrace
Precip. events Snow began 1:03 PM
Relative humidity61 %
Density altitude-3,231 ft. (-985 m)
Remarks Automated weather observing station with precipitation discriminator
Flight conditions Marginal Visual Meteorological Conditions
Raw dataKORD 181304Z 29016G26KT 10SM -SN BKN025 BKN029 M11/M17 A2997 RMK AO2 PK WND 29026/1256 SNB03 P0000 T11061167
An error has occurred. This application may no longer respond until reloaded. Reload 🗙